createdAt,value
2023-01-17T00:02:07.925Z,96797.34
2023-01-17T00:04:53.159Z,96799.13
2023-01-17T00:07:40.172Z,96794.81
2023-01-17T00:10:14.502Z,96796.56
2023-01-17T00:12:49.954Z,96798.34
2023-01-17T00:15:19.716Z,96799.13
2023-01-17T00:17:47.170Z,96804.38
2023-01-17T00:20:33.435Z,96807.88
2023-01-17T00:23:18.828Z,96811.41
2023-01-17T00:26:03.482Z,96805.28
2023-01-17T00:28:32.920Z,96814.06
2023-01-17T00:30:59.661Z,96814.13
2023-01-17T00:33:26.263Z,96820.38
2023-01-17T00:35:54.211Z,96816.91
2023-01-17T00:38:22.828Z,96818.72
2023-01-17T00:40:50.093Z,96819.56
2023-01-17T00:43:38.057Z,96823.13
2023-01-17T00:46:23.844Z,96825.75
2023-01-17T00:49:09.309Z,96822.22
2023-01-17T00:51:56.016Z,96830.03
2023-01-17T00:54:41.401Z,96825.69
2023-01-17T00:57:27.226Z,96827.44
2023-01-17T01:00:12.388Z,96831.88
2023-01-17T01:02:58.147Z,96830.16
2023-01-17T01:05:43.353Z,96838.84
2023-01-17T01:08:44.045Z,96834.47
2023-01-17T01:11:32.948Z,96831.03
2023-01-17T01:14:19.380Z,96831.84
2023-01-17T01:17:04.839Z,96839.66
2023-01-17T01:19:49.732Z,96838.75
2023-01-17T01:22:35.157Z,96850.97
2023-01-17T01:25:20.383Z,96850.09
2023-01-17T01:28:05.421Z,96851.03
2023-01-17T01:30:50.555Z,96859.00
2023-01-17T01:33:20.182Z,96860.78
2023-01-17T01:35:47.992Z,96851.25
2023-01-17T01:38:14.439Z,96847.81
2023-01-17T01:40:46.291Z,96848.72
2023-01-17T01:43:15.168Z,96848.75
2023-01-17T01:45:46.132Z,96855.84
2023-01-17T01:48:18.807Z,96863.69
2023-01-17T01:50:49.571Z,96861.94
2023-01-17T01:53:17.604Z,96861.09
2023-01-17T01:55:49.532Z,96868.09
2023-01-17T01:58:27.544Z,96872.41
2023-01-17T02:00:54.124Z,96882.00
2023-01-17T02:03:29.317Z,96884.63
2023-01-17T02:06:02.159Z,96888.94
2023-01-17T02:08:29.169Z,96888.94
2023-01-17T02:10:56.043Z,96886.28
2023-01-17T02:13:22.638Z,96888.00
2023-01-17T02:16:14.244Z,96894.94
2023-01-17T02:19:23.102Z,96894.97
2023-01-17T02:22:14.269Z,96895.88
2023-01-17T02:25:03.981Z,96892.44
2023-01-17T02:27:52.331Z,96895.16
2023-01-17T02:30:33.926Z,96900.38
2023-01-17T02:33:15.563Z,96898.69
2023-01-17T02:36:04.145Z,96907.44
2023-01-17T02:38:38.126Z,96898.75
2023-01-17T02:41:16.515Z,96906.66
2023-01-17T02:43:43.323Z,96904.03
2023-01-17T02:46:10.074Z,96897.19
2023-01-17T02:48:37.578Z,96916.34
2023-01-17T02:51:31.802Z,96915.50
2023-01-17T02:54:32.635Z,96921.75
2023-01-17T02:57:36.583Z,96927.19
2023-01-17T03:00:24.341Z,96932.50
2023-01-17T03:03:04.727Z,96930.00
2023-01-17T03:05:44.476Z,96939.66
2023-01-17T03:08:12.850Z,96938.84
2023-01-17T03:10:41.544Z,96958.03
2023-01-17T03:13:08.226Z,96948.53
2023-01-17T03:15:35.023Z,96958.22
2023-01-17T03:18:08.199Z,96953.94
2023-01-17T03:20:35.042Z,96969.66
2023-01-17T03:23:01.591Z,96969.69
2023-01-17T03:25:30.773Z,96980.19
2023-01-17T03:27:57.458Z,96975.88
2023-01-17T03:30:24.151Z,96979.47
2023-01-17T03:32:50.751Z,96988.22
2023-01-17T03:35:17.507Z,96996.97
2023-01-17T03:37:44.015Z,97005.69
2023-01-17T03:40:11.112Z,97006.59
2023-01-17T03:42:37.600Z,97009.22
2023-01-17T03:45:04.470Z,97012.81
2023-01-17T03:47:30.913Z,97021.56
2023-01-17T03:49:57.671Z,97026.84
2023-01-17T03:52:24.344Z,97031.19
2023-01-17T03:54:51.005Z,97033.84
2023-01-17T03:57:17.574Z,97032.09
2023-01-17T03:59:44.986Z,97042.56
2023-01-17T04:02:11.576Z,97037.34
2023-01-17T04:04:38.113Z,97029.50
2023-01-17T04:07:04.866Z,97046.84
2023-01-17T04:09:34.022Z,97046.81
2023-01-17T04:12:01.871Z,97052.94
2023-01-17T04:14:28.350Z,97063.41
2023-01-17T04:16:56.193Z,97059.13
2023-01-17T04:19:22.794Z,97058.31
2023-01-17T04:21:49.337Z,97060.97
2023-01-17T04:24:17.804Z,97063.59
2023-01-17T04:26:44.543Z,97057.44
2023-01-17T04:29:11.102Z,97051.31
2023-01-17T04:31:37.667Z,97056.50
2023-01-17T04:34:04.128Z,97067.88
2023-01-17T04:36:30.746Z,97058.25
2023-01-17T04:38:57.300Z,97058.25
2023-01-17T04:41:23.913Z,97065.25
2023-01-17T04:43:50.378Z,97060.91
2023-01-17T04:46:17.057Z,97063.50
2023-01-17T04:48:43.556Z,97066.13
2023-01-17T04:51:12.411Z,97064.41
2023-01-17T04:53:39.073Z,97059.19
2023-01-17T04:56:05.769Z,97069.66
2023-01-17T04:58:33.429Z,97066.25
2023-01-17T05:01:05.113Z,97073.28
2023-01-17T05:03:32.174Z,97056.84
2023-01-17T05:05:59.283Z,97064.72
2023-01-17T05:08:25.951Z,97071.66
2023-01-17T05:10:52.819Z,97078.59
2023-01-17T05:13:19.282Z,97084.66
2023-01-17T05:15:46.622Z,97083.72
2023-01-17T05:18:17.346Z,97092.38
2023-01-17T05:20:44.436Z,97090.56
2023-01-17T05:23:11.326Z,97090.50
2023-01-17T05:25:37.810Z,97101.81
2023-01-17T05:28:04.510Z,97097.47
2023-01-17T05:30:32.510Z,97097.47
2023-01-17T05:32:59.567Z,97112.22
2023-01-17T05:35:29.316Z,97112.22
2023-01-17T05:37:56.026Z,97120.09
2023-01-17T05:40:25.881Z,97125.31
2023-01-17T05:42:54.183Z,97130.56
2023-01-17T05:45:22.904Z,97137.59
2023-01-17T05:47:51.960Z,97150.69
2023-01-17T05:50:30.386Z,97155.97
2023-01-17T05:52:59.800Z,97166.44
2023-01-17T05:55:27.441Z,97163.91
2023-01-17T05:57:54.814Z,97158.75
2023-01-17T06:00:22.360Z,97179.69
2023-01-17T06:02:49.724Z,97189.31
2023-01-17T06:05:16.950Z,97191.97
2023-01-17T06:07:45.523Z,97198.09
2023-01-17T06:10:16.121Z,97197.28
2023-01-17T06:12:43.750Z,97204.38
2023-01-17T06:15:12.373Z,97193.94
2023-01-17T06:17:39.227Z,97219.25
2023-01-17T06:20:07.158Z,97225.44
2023-01-17T06:22:34.361Z,97241.19
2023-01-17T06:25:00.842Z,97241.31
2023-01-17T06:27:27.820Z,97253.66
2023-01-17T06:29:54.412Z,97267.63
2023-01-17T06:32:20.898Z,97264.25
2023-01-17T06:34:47.400Z,97281.81
2023-01-17T06:37:13.987Z,97283.59
2023-01-17T06:39:40.578Z,97297.56
2023-01-17T06:42:07.072Z,97298.47
2023-01-17T06:44:33.809Z,97313.31
2023-01-17T06:47:00.349Z,97309.88
2023-01-17T06:49:27.003Z,97322.13
2023-01-17T06:51:53.449Z,97331.72
2023-01-17T06:54:20.025Z,97339.59
2023-01-17T06:56:46.546Z,97342.25
2023-01-17T06:59:13.025Z,97354.44
2023-01-17T07:01:40.228Z,97352.75
2023-01-17T07:04:06.799Z,97364.06
2023-01-17T07:06:35.880Z,97371.91
2023-01-17T07:09:04.170Z,97367.56
2023-01-17T07:11:30.982Z,97374.50
2023-01-17T07:13:57.489Z,97386.69
2023-01-17T07:16:24.067Z,97389.34
2023-01-17T07:18:51.764Z,97385.88
2023-01-17T07:21:18.349Z,97395.41
2023-01-17T07:23:44.899Z,97385.00
2023-01-17T07:26:11.626Z,97395.41
2023-01-17T07:28:38.250Z,97410.16
2023-01-17T07:31:06.973Z,97405.81
2023-01-17T07:33:33.924Z,97402.31
2023-01-17T07:36:06.278Z,97412.72
2023-01-17T07:38:33.015Z,97417.06
2023-01-17T07:41:00.048Z,97434.41
2023-01-17T07:43:26.836Z,97436.19
2023-01-17T07:45:53.363Z,97430.94
2023-01-17T07:48:22.050Z,97436.16
2023-01-17T07:50:56.020Z,97435.31
2023-01-17T07:53:27.408Z,97439.66
2023-01-17T07:55:53.916Z,97441.41
2023-01-17T07:58:21.425Z,97438.78
2023-01-17T08:00:48.179Z,97440.53
2023-01-17T08:03:17.740Z,97438.78
2023-01-17T08:05:55.180Z,97447.47
2023-01-17T08:08:21.679Z,97442.25
2023-01-17T08:10:49.445Z,97446.56
2023-01-17T08:13:15.899Z,97450.06
2023-01-17T08:15:43.169Z,97454.38
2023-01-17T08:18:09.852Z,97459.59
2023-01-17T08:20:36.312Z,97463.06
2023-01-17T08:23:02.804Z,97467.41
2023-01-17T08:25:29.399Z,97477.81
2023-01-17T08:27:57.909Z,97473.50
2023-01-17T08:30:25.445Z,97490.00
2023-01-17T08:32:52.045Z,97485.63
2023-01-17T08:35:19.987Z,97489.09
2023-01-17T08:37:47.723Z,97489.09
2023-01-17T08:40:16.985Z,97499.50
2023-01-17T08:42:44.224Z,97509.06
2023-01-17T08:45:11.862Z,97509.03
2023-01-17T08:47:38.690Z,97516.84
2023-01-17T08:50:06.845Z,97516.84
2023-01-17T08:52:33.928Z,97522.03
2023-01-17T08:55:00.396Z,97522.91
2023-01-17T08:57:26.955Z,97540.28
2023-01-17T08:59:53.463Z,97543.75
2023-01-17T09:02:20.396Z,97540.25
2023-01-17T09:04:48.808Z,97543.75
2023-01-17T09:07:17.111Z,97552.44
2023-01-17T09:09:43.844Z,97559.34
2023-01-17T09:12:10.515Z,97561.94
2023-01-17T09:14:37.793Z,97567.13
2023-01-17T09:17:07.037Z,97565.38
2023-01-17T09:19:33.665Z,97567.09
2023-01-17T09:22:00.145Z,97560.09
2023-01-17T09:24:26.803Z,97567.06
2023-01-17T09:26:53.530Z,97578.38
2023-01-17T09:29:20.180Z,97580.06
2023-01-17T09:31:48.037Z,97582.63
2023-01-17T09:34:14.601Z,97583.44
2023-01-17T09:36:42.538Z,97594.75
2023-01-17T09:39:10.964Z,97593.88
2023-01-17T09:41:47.917Z,97592.09
2023-01-17T09:44:22.221Z,97598.13
2023-01-17T09:46:51.406Z,97589.38
2023-01-17T09:49:32.629Z,97592.00
2023-01-17T09:51:59.902Z,97607.69
2023-01-17T09:54:34.474Z,97613.72
2023-01-17T09:57:08.889Z,97605.00
2023-01-17T09:59:38.186Z,97611.97
2023-01-17T10:02:46.297Z,97617.16
2023-01-17T10:05:29.739Z,97609.31
2023-01-17T10:08:20.745Z,97606.66
2023-01-17T10:10:55.112Z,97615.38
2023-01-17T10:13:38.009Z,97611.88
2023-01-17T10:16:23.752Z,97611.03
2023-01-17T10:19:18.948Z,97615.44
2023-01-17T10:22:18.228Z,97615.41
2023-01-17T10:25:03.979Z,97604.97
2023-01-17T10:27:58.271Z,97605.84
2023-01-17T10:30:38.749Z,97613.66
2023-01-17T10:33:15.886Z,97608.41
2023-01-17T10:35:53.354Z,97604.97
2023-01-17T10:38:23.696Z,97611.13
2023-01-17T10:40:57.355Z,97621.56
2023-01-17T10:44:01.807Z,97614.59
2023-01-17T10:46:38.831Z,97617.16
2023-01-17T10:49:05.318Z,97619.81
2023-01-17T10:51:43.010Z,97618.94
2023-01-17T10:54:24.345Z,97625.03
2023-01-17T10:56:50.963Z,97624.19
2023-01-17T10:59:29.444Z,97632.84
2023-01-17T11:01:57.160Z,97617.19
2023-01-17T11:04:37.126Z,97619.72
2023-01-17T11:07:25.733Z,97629.94
2023-01-17T11:09:54.712Z,97641.19
2023-01-17T11:12:47.207Z,97642.88
2023-01-17T11:15:13.571Z,97635.06
2023-01-17T11:18:00.461Z,97628.09
2023-01-17T11:20:33.375Z,97634.16
2023-01-17T11:23:07.997Z,97625.47
2023-01-17T11:25:35.080Z,97637.63
2023-01-17T11:28:08.267Z,97627.03
2023-01-17T11:30:34.784Z,97634.03
2023-01-17T11:33:26.669Z,97639.19
2023-01-17T11:35:53.222Z,97629.63
2023-01-17T11:38:22.059Z,97639.22
2023-01-17T11:40:49.862Z,97634.06
2023-01-17T11:43:27.166Z,97629.78
2023-01-17T11:46:13.503Z,97636.75
2023-01-17T11:48:40.251Z,97632.38
2023-01-17T11:51:41.346Z,97636.66
2023-01-17T11:54:26.861Z,97636.69
2023-01-17T11:56:59.104Z,97644.63
2023-01-17T11:59:30.336Z,97646.41
2023-01-17T12:02:31.917Z,97653.38
2023-01-17T12:05:23.611Z,97650.81
2023-01-17T12:08:21.883Z,97648.16
2023-01-17T12:11:02.961Z,97643.84
2023-01-17T12:14:02.306Z,97649.03
2023-01-17T12:16:37.877Z,97655.13
2023-01-17T12:19:37.959Z,97644.69
2023-01-17T12:22:29.442Z,97645.63
2023-01-17T12:25:28.456Z,97646.53
2023-01-17T12:28:13.414Z,97646.53
2023-01-17T12:31:00.272Z,97650.00
2023-01-17T12:33:49.894Z,97640.44
2023-01-17T12:36:34.092Z,97638.72
2023-01-17T12:39:06.090Z,97643.94
2023-01-17T12:41:43.483Z,97646.56
2023-01-17T12:44:13.695Z,97644.81
2023-01-17T12:46:49.340Z,97653.53
2023-01-17T12:49:40.747Z,97661.31
2023-01-17T12:52:17.710Z,97662.25
2023-01-17T12:54:56.542Z,97664.88
2023-01-17T12:57:37.843Z,97660.56
2023-01-17T13:00:13.364Z,97670.16
2023-01-17T13:02:49.846Z,97665.81
2023-01-17T13:05:29.575Z,97674.50
2023-01-17T13:08:18.094Z,97677.09
2023-01-17T13:10:51.234Z,97672.69
2023-01-17T13:13:25.939Z,97672.69
2023-01-17T13:15:57.666Z,97672.66
2023-01-17T13:18:29.927Z,97675.25
2023-01-17T13:21:21.340Z,97682.16
2023-01-17T13:24:01.886Z,97696.97
2023-01-17T13:26:36.349Z,97694.34
2023-01-17T13:29:23.907Z,97702.09
2023-01-17T13:32:25.811Z,97702.81
2023-01-17T13:35:04.475Z,97717.66
2023-01-17T13:37:55.779Z,97717.69
2023-01-17T13:40:34.343Z,97721.09
2023-01-17T13:43:03.094Z,97723.72
2023-01-17T13:45:32.693Z,97723.59
2023-01-17T13:48:18.136Z,97727.00
2023-01-17T13:50:46.448Z,97725.13
2023-01-17T13:53:32.228Z,97726.94
2023-01-17T13:56:15.910Z,97736.69
2023-01-17T13:58:47.841Z,97742.84
2023-01-17T14:01:14.867Z,97742.78
2023-01-17T14:03:50.509Z,97749.72
2023-01-17T14:06:35.709Z,97756.69
2023-01-17T14:09:15.530Z,97752.41
2023-01-17T14:11:51.591Z,97747.31
2023-01-17T14:14:40.107Z,97756.13
2023-01-17T14:17:15.888Z,97754.47
2023-01-17T14:19:46.227Z,97754.53
2023-01-17T14:22:18.416Z,97756.34
2023-01-17T14:25:12.196Z,97756.41
2023-01-17T14:27:51.418Z,97761.69
2023-01-17T14:30:22.063Z,97772.16
2023-01-17T14:33:10.324Z,97771.31
2023-01-17T14:35:55.977Z,97773.09
2023-01-17T14:38:28.506Z,97773.09
2023-01-17T14:41:02.458Z,97774.00
2023-01-17T14:43:32.969Z,97774.00
2023-01-17T14:46:06.874Z,97780.94
2023-01-17T14:48:33.973Z,97783.56
2023-01-17T14:51:01.220Z,97778.38
2023-01-17T14:53:31.413Z,97792.31
2023-01-17T14:56:15.721Z,97789.69
2023-01-17T14:58:42.711Z,97785.34
2023-01-17T15:01:20.332Z,97791.44
2023-01-17T15:03:50.519Z,97790.56
2023-01-17T15:06:38.669Z,97790.56
2023-01-17T15:09:20.067Z,97791.47
2023-01-17T15:11:48.414Z,97786.25
2023-01-17T15:14:28.954Z,97795.84
2023-01-17T15:16:56.160Z,97791.50
2023-01-17T15:19:23.327Z,97788.09
2023-01-17T15:21:52.750Z,97795.06
2023-01-17T15:24:28.767Z,97794.22
2023-01-17T15:26:55.944Z,97787.28
2023-01-17T15:29:33.216Z,97793.38
2023-01-17T15:32:02.655Z,97798.63
2023-01-17T15:34:53.939Z,97802.97
2023-01-17T15:37:35.555Z,97799.50
2023-01-17T15:40:07.289Z,97803.88
2023-01-17T15:42:38.543Z,97797.81
2023-01-17T15:45:09.353Z,97806.50
2023-01-17T15:47:38.753Z,97812.59
2023-01-17T15:50:39.731Z,97811.72
2023-01-17T15:53:27.977Z,97812.59
2023-01-17T15:55:54.523Z,97809.97
2023-01-17T15:58:29.939Z,97799.53
2023-01-17T16:00:57.275Z,97806.47
2023-01-17T16:03:27.455Z,97816.03
2023-01-17T16:05:57.610Z,97809.97
2023-01-17T16:08:26.752Z,97811.66
2023-01-17T16:11:02.073Z,97819.47
2023-01-17T16:13:31.300Z,97821.22
2023-01-17T16:16:15.745Z,97811.63
2023-01-17T16:18:43.106Z,97822.91
2023-01-17T16:21:18.731Z,97819.41
2023-01-17T16:23:45.959Z,97826.31
2023-01-17T16:26:12.501Z,97827.22
2023-01-17T16:28:39.025Z,97826.28
2023-01-17T16:31:06.108Z,97830.63
2023-01-17T16:33:32.614Z,97832.34
2023-01-17T16:35:59.226Z,97834.06
2023-01-17T16:38:25.917Z,97841.00
2023-01-17T16:40:53.067Z,97830.56
2023-01-17T16:43:20.245Z,97834.91
2023-01-17T16:45:49.017Z,97834.03
2023-01-17T16:48:17.183Z,97838.34
2023-01-17T16:50:50.312Z,97840.91
2023-01-17T16:53:22.028Z,97844.34
2023-01-17T16:55:53.407Z,97837.38
2023-01-17T16:58:20.381Z,97838.25
2023-01-17T17:00:47.454Z,97835.59
2023-01-17T17:03:20.091Z,97842.53
2023-01-17T17:05:55.852Z,97844.22
2023-01-17T17:08:23.145Z,97848.53
2023-01-17T17:10:49.833Z,97847.66
2023-01-17T17:13:16.350Z,97843.28
2023-01-17T17:15:46.377Z,97841.56
2023-01-17T17:18:17.589Z,97855.41
2023-01-17T17:20:45.054Z,97856.28
2023-01-17T17:23:11.783Z,97853.63
2023-01-17T17:25:38.562Z,97863.16
2023-01-17T17:28:06.009Z,97869.22
2023-01-17T17:30:33.331Z,97872.72
2023-01-17T17:33:00.096Z,97882.25
2023-01-17T17:35:26.887Z,97881.34
2023-01-17T17:37:53.996Z,97880.47
2023-01-17T17:40:20.631Z,97887.41
2023-01-17T17:42:47.083Z,97891.72
2023-01-17T17:45:13.660Z,97888.25
2023-01-17T17:47:40.154Z,97888.19
2023-01-17T17:50:07.217Z,97886.47
2023-01-17T17:52:33.647Z,97882.09
2023-01-17T17:55:00.180Z,97889.00
2023-01-17T17:57:26.640Z,97886.38
2023-01-17T17:59:55.988Z,97883.72
2023-01-17T18:02:22.733Z,97888.91
2023-01-17T18:04:49.242Z,97893.19
2023-01-17T18:07:15.810Z,97889.72
2023-01-17T18:09:42.286Z,97896.59
2023-01-17T18:12:08.866Z,97896.56
2023-01-17T18:14:36.129Z,97887.84
2023-01-17T18:17:02.735Z,97891.25
2023-01-17T18:19:29.799Z,97889.50
2023-01-17T18:21:56.332Z,97897.25
2023-01-17T18:24:25.006Z,97900.66
2023-01-17T18:26:54.447Z,97907.53
2023-01-17T18:29:22.309Z,97907.50
2023-01-17T18:31:50.733Z,97905.72
2023-01-17T18:34:23.792Z,97904.81
2023-01-17T18:36:51.562Z,97896.06
2023-01-17T18:39:20.668Z,97901.22
2023-01-17T18:41:49.268Z,97909.00
2023-01-17T18:44:16.203Z,97911.53
2023-01-17T18:46:43.287Z,97915.81
2023-01-17T18:49:16.261Z,97916.63
2023-01-17T18:51:47.735Z,97920.06
2023-01-17T18:54:14.412Z,97919.16
2023-01-17T18:56:42.388Z,97919.97
2023-01-17T18:59:12.283Z,97913.88
2023-01-17T19:01:43.526Z,97917.25
2023-01-17T19:04:12.495Z,97922.44
2023-01-17T19:06:41.642Z,97923.22
2023-01-17T19:09:10.089Z,97917.13
2023-01-17T19:11:36.997Z,97922.31
2023-01-17T19:14:04.724Z,97928.31
2023-01-17T19:16:35.367Z,97923.06
2023-01-17T19:19:07.702Z,97927.38
2023-01-17T19:21:34.759Z,97927.34
2023-01-17T19:24:01.555Z,97927.25
2023-01-17T19:26:28.523Z,97931.53
2023-01-17T19:28:56.676Z,97943.63
2023-01-17T19:31:26.523Z,97957.44
2023-01-17T19:33:57.187Z,97953.06
2023-01-17T19:36:26.197Z,97944.34
2023-01-17T19:39:04.003Z,97948.66
2023-01-17T19:41:31.893Z,97944.28
2023-01-17T19:44:01.039Z,97941.63
2023-01-17T19:46:28.320Z,97933.81
2023-01-17T19:48:56.591Z,97942.44
2023-01-17T19:51:24.520Z,97944.13
2023-01-17T19:53:51.150Z,97946.69
2023-01-17T19:56:21.060Z,97958.78
2023-01-17T19:58:47.815Z,97961.34
2023-01-17T20:01:20.552Z,97969.09
2023-01-17T20:03:48.646Z,97963.88
2023-01-17T20:06:18.795Z,97972.47
2023-01-17T20:08:45.521Z,97969.84
2023-01-17T20:11:14.835Z,97974.16
2023-01-17T20:13:42.272Z,97977.63
2023-01-17T20:16:11.554Z,97993.19
2023-01-17T20:18:38.682Z,97992.28
2023-01-17T20:21:08.315Z,98004.38
2023-01-17T20:23:42.319Z,98006.09
2023-01-17T20:26:11.053Z,98006.03
2023-01-17T20:28:39.941Z,98004.28
2023-01-17T20:31:15.466Z,98009.47
2023-01-17T20:33:44.309Z,98017.19
2023-01-17T20:36:14.846Z,98018.94
2023-01-17T20:38:44.847Z,98011.94
2023-01-17T20:41:12.343Z,98012.81
2023-01-17T20:43:39.106Z,98013.63
2023-01-17T20:46:07.042Z,98010.13
2023-01-17T20:48:34.067Z,98002.34
2023-01-17T20:51:06.350Z,98003.19
2023-01-17T20:53:35.065Z,98004.88
2023-01-17T20:56:02.565Z,98002.22
2023-01-17T20:58:30.428Z,97998.78
2023-01-17T21:00:58.205Z,97998.75
2023-01-17T21:03:29.901Z,98002.16
2023-01-17T21:06:01.751Z,98002.16
2023-01-17T21:08:29.696Z,97994.34
2023-01-17T21:10:56.722Z,98008.13
2023-01-17T21:13:24.382Z,98008.94
2023-01-17T21:15:51.971Z,98011.47
2023-01-17T21:18:20.056Z,98010.63
2023-01-17T21:20:47.332Z,98020.06
2023-01-17T21:23:20.150Z,98024.34
2023-01-17T21:25:55.530Z,98028.63
2023-01-17T21:28:23.248Z,98032.03
2023-01-17T21:30:49.990Z,98042.38
2023-01-17T21:33:18.081Z,98041.53
2023-01-17T21:35:45.470Z,98044.06
2023-01-17T21:38:13.959Z,98049.22
2023-01-17T21:40:41.522Z,98048.31
2023-01-17T21:43:09.958Z,98052.59
2023-01-17T21:45:40.304Z,98055.19
2023-01-17T21:48:12.062Z,98054.31
2023-01-17T21:50:39.175Z,98060.31
2023-01-17T21:53:06.242Z,98062.91
2023-01-17T21:55:51.198Z,98056.81
2023-01-17T21:58:36.636Z,98067.16
2023-01-17T22:01:10.872Z,98074.91
2023-01-17T22:03:37.900Z,98076.56
2023-01-17T22:06:05.049Z,98080.03
2023-01-17T22:08:33.626Z,98079.13
2023-01-17T22:11:08.325Z,98082.53
2023-01-17T22:13:36.008Z,98084.25
2023-01-17T22:16:06.152Z,98078.19
2023-01-17T22:18:38.197Z,98081.56
2023-01-17T22:21:08.255Z,98083.25
2023-01-17T22:23:35.285Z,98080.66
2023-01-17T22:26:10.022Z,98081.50
2023-01-17T22:28:38.108Z,98095.28
2023-01-17T22:31:17.607Z,98087.47
2023-01-17T22:33:45.752Z,98101.31
2023-01-17T22:36:13.890Z,98096.97
2023-01-17T22:38:41.626Z,98103.03
2023-01-17T22:41:15.926Z,98110.75
2023-01-17T22:43:45.203Z,98110.75
2023-01-17T22:46:14.426Z,98107.28
2023-01-17T22:48:41.907Z,98113.31
2023-01-17T22:51:13.033Z,98110.75
2023-01-17T22:53:47.880Z,98115.09
2023-01-17T22:56:18.170Z,98118.50
2023-01-17T22:58:45.100Z,98118.53
2023-01-17T23:01:14.667Z,98115.94
2023-01-17T23:03:41.961Z,98117.63
2023-01-17T23:06:20.400Z,98117.63
2023-01-17T23:08:49.603Z,98111.50
2023-01-17T23:11:43.673Z,98109.78
2023-01-17T23:14:17.386Z,98118.38
2023-01-17T23:17:11.419Z,98118.38
2023-01-17T23:19:41.295Z,98119.25
2023-01-17T23:22:19.343Z,98119.25
2023-01-17T23:24:57.920Z,98117.47
2023-01-17T23:27:53.350Z,98113.13
2023-01-17T23:30:24.874Z,98107.06
2023-01-17T23:32:54.253Z,98113.09
2023-01-17T23:35:23.996Z,98104.41
2023-01-17T23:38:09.142Z,98103.53
2023-01-17T23:40:37.508Z,98104.31
2023-01-17T23:43:22.781Z,98100.00
2023-01-17T23:45:54.350Z,98100.84
2023-01-17T23:48:23.984Z,98099.09
2023-01-17T23:50:50.738Z,98099.94
2023-01-17T23:53:22.553Z,98084.34
2023-01-17T23:55:51.687Z,98090.38
2023-01-17T23:58:19.729Z,98081.72
